createdAt,value
2017-07-31T00:00:40.068Z,65.15
2017-07-31T00:01:37.380Z,65.18
2017-07-31T00:02:34.636Z,65.18
2017-07-31T00:03:31.934Z,65.22
2017-07-31T00:04:29.258Z,65.22
2017-07-31T00:05:26.642Z,65.25
2017-07-31T00:06:23.914Z,65.28
2017-07-31T00:07:21.555Z,65.30
2017-07-31T00:08:18.839Z,65.32
2017-07-31T00:09:16.201Z,65.35
2017-07-31T00:10:13.605Z,65.40
2017-07-31T00:11:10.890Z,65.39
2017-07-31T00:12:08.159Z,65.45
2017-07-31T00:13:05.425Z,65.44
2017-07-31T00:14:02.688Z,65.47
2017-07-31T00:14:59.987Z,65.45
2017-07-31T00:15:57.234Z,65.48
2017-07-31T00:16:54.526Z,65.49
2017-07-31T00:17:51.880Z,65.51
2017-07-31T00:18:49.177Z,65.54
2017-07-31T00:19:46.490Z,65.59
2017-07-31T00:20:43.821Z,65.63
2017-07-31T00:21:41.133Z,65.65
2017-07-31T00:22:38.506Z,65.68
2017-07-31T00:23:35.902Z,65.69
2017-07-31T00:24:33.264Z,65.75
2017-07-31T00:25:30.574Z,65.80
2017-07-31T00:26:27.984Z,65.83
2017-07-31T00:27:25.264Z,65.87
2017-07-31T00:28:22.710Z,65.92
2017-07-31T00:29:20.113Z,65.94
2017-07-31T00:30:17.477Z,65.94
2017-07-31T00:31:14.801Z,65.96
2017-07-31T00:32:12.163Z,65.99
2017-07-31T00:33:09.544Z,66.02
2017-07-31T00:34:07.070Z,66.04
2017-07-31T00:35:04.360Z,66.06
2017-07-31T00:36:01.829Z,66.11
2017-07-31T00:36:59.214Z,66.10
2017-07-31T00:37:56.502Z,66.13
2017-07-31T00:38:53.802Z,66.14
2017-07-31T00:39:51.113Z,66.15
2017-07-31T00:40:48.440Z,66.19
2017-07-31T00:41:45.765Z,66.19
2017-07-31T00:42:43.099Z,66.21
2017-07-31T00:43:40.519Z,66.24
2017-07-31T00:44:37.804Z,66.29
2017-07-31T00:45:35.107Z,66.35
2017-07-31T00:46:32.368Z,66.36
2017-07-31T00:47:29.712Z,66.40
2017-07-31T00:48:27.053Z,66.43
2017-07-31T00:49:24.406Z,66.46
2017-07-31T00:50:21.721Z,66.47
2017-07-31T00:51:19.108Z,66.51
2017-07-31T00:52:16.385Z,66.55
2017-07-31T00:53:13.749Z,66.57
2017-07-31T00:54:11.004Z,66.58
2017-07-31T00:55:08.288Z,66.63
2017-07-31T00:56:05.580Z,66.65
2017-07-31T00:57:02.949Z,66.67
2017-07-31T00:58:00.226Z,66.70
2017-07-31T00:58:57.502Z,66.72
2017-07-31T00:59:54.821Z,66.74
2017-07-31T01:00:52.164Z,66.77
2017-07-31T01:01:49.470Z,66.79
2017-07-31T01:02:46.817Z,66.83
2017-07-31T01:03:44.102Z,66.85
2017-07-31T01:04:41.399Z,66.87
2017-07-31T01:05:38.708Z,66.90
2017-07-31T01:06:36.014Z,66.91
2017-07-31T01:07:33.278Z,66.91
2017-07-31T01:08:30.661Z,66.90
2017-07-31T01:09:27.918Z,66.93
2017-07-31T01:10:25.292Z,66.94
2017-07-31T01:11:22.579Z,66.98
2017-07-31T01:12:20.005Z,66.99
2017-07-31T01:13:17.266Z,67.00
2017-07-31T01:14:14.640Z,67.03
2017-07-31T01:15:11.927Z,67.07
2017-07-31T01:16:09.228Z,67.08
2017-07-31T01:17:06.540Z,67.09
2017-07-31T01:18:03.836Z,67.14
2017-07-31T01:19:01.132Z,67.17
2017-07-31T01:19:58.412Z,67.19
2017-07-31T01:20:55.693Z,67.23
2017-07-31T01:21:53.228Z,67.24
2017-07-31T01:22:50.504Z,67.28
2017-07-31T01:23:47.882Z,67.31
2017-07-31T01:24:45.640Z,67.36
2017-07-31T01:25:43.005Z,67.37
2017-07-31T01:26:40.296Z,67.38
2017-07-31T01:27:37.679Z,67.42
2017-07-31T01:28:35.002Z,67.45
2017-07-31T01:29:32.324Z,67.48
2017-07-31T01:30:29.618Z,67.52
2017-07-31T01:31:27.045Z,67.54
2017-07-31T01:32:24.326Z,67.57
2017-07-31T01:33:21.716Z,67.60
2017-07-31T01:34:19.076Z,67.63
2017-07-31T01:35:16.401Z,67.64
2017-07-31T01:36:13.705Z,67.66
2017-07-31T01:37:11.058Z,67.69
2017-07-31T01:38:08.309Z,67.72
2017-07-31T01:39:05.600Z,67.74
2017-07-31T01:40:02.880Z,67.78
2017-07-31T01:41:00.174Z,67.80
2017-07-31T01:41:57.453Z,67.84
2017-07-31T01:42:54.804Z,67.86
2017-07-31T01:43:52.064Z,67.91
2017-07-31T01:44:49.376Z,67.94
2017-07-31T01:45:46.641Z,67.97
2017-07-31T01:46:43.944Z,68.00
2017-07-31T01:47:41.269Z,68.06
2017-07-31T01:48:38.656Z,68.07
2017-07-31T01:49:35.943Z,68.10
2017-07-31T01:50:33.246Z,68.12
2017-07-31T01:51:30.597Z,68.15
2017-07-31T01:52:27.950Z,68.19
2017-07-31T01:53:25.238Z,68.23
2017-07-31T01:54:22.517Z,68.27
2017-07-31T01:55:19.811Z,68.30
2017-07-31T01:56:17.124Z,68.35
2017-07-31T01:57:14.412Z,68.38
2017-07-31T01:58:11.749Z,68.43
2017-07-31T01:59:09.043Z,68.46
2017-07-31T02:00:06.337Z,68.50
2017-07-31T02:01:03.581Z,68.50
2017-07-31T02:02:00.854Z,68.57
2017-07-31T02:02:58.202Z,68.59
2017-07-31T02:03:55.520Z,68.62
2017-07-31T02:04:52.801Z,68.67
2017-07-31T02:05:50.079Z,68.67
2017-07-31T02:06:47.347Z,68.70
2017-07-31T02:07:44.643Z,68.73
2017-07-31T02:08:41.913Z,68.76
2017-07-31T02:09:39.241Z,68.81
2017-07-31T02:10:36.508Z,68.84
2017-07-31T02:11:33.877Z,68.86
2017-07-31T02:12:31.165Z,68.91
2017-07-31T02:13:28.552Z,68.95
2017-07-31T02:14:25.824Z,68.98
2017-07-31T02:15:23.141Z,68.99
2017-07-31T02:16:20.477Z,69.01
2017-07-31T02:17:17.816Z,69.01
2017-07-31T02:18:15.108Z,69.06
2017-07-31T02:19:12.521Z,69.06
2017-07-31T02:20:09.849Z,69.08
2017-07-31T02:21:07.216Z,69.10
2017-07-31T02:22:04.541Z,69.12
2017-07-31T02:23:02.029Z,69.16
2017-07-31T02:23:59.341Z,69.19
2017-07-31T02:24:56.689Z,69.18
2017-07-31T02:25:53.997Z,69.21
2017-07-31T02:26:51.312Z,69.22
2017-07-31T02:27:48.592Z,69.26
2017-07-31T02:28:45.897Z,69.27
2017-07-31T02:29:43.131Z,69.29
2017-07-31T02:30:40.476Z,69.29
2017-07-31T02:31:37.737Z,69.35
2017-07-31T02:32:35.011Z,69.37
2017-07-31T02:33:32.385Z,69.41
2017-07-31T02:34:29.829Z,69.42
2017-07-31T02:35:27.100Z,69.43
2017-07-31T02:36:24.426Z,69.44
2017-07-31T02:37:21.864Z,69.46
2017-07-31T02:38:19.222Z,69.49
2017-07-31T02:39:16.536Z,69.49
2017-07-31T02:40:13.976Z,69.55
2017-07-31T02:41:11.272Z,69.57
2017-07-31T02:42:08.606Z,69.57
2017-07-31T02:43:05.874Z,69.62
2017-07-31T02:44:03.186Z,69.65
2017-07-31T02:45:00.579Z,69.66
2017-07-31T02:45:57.953Z,69.69
2017-07-31T02:46:55.253Z,69.69
2017-07-31T02:47:52.536Z,69.73
2017-07-31T02:48:49.812Z,69.76
2017-07-31T02:49:47.121Z,69.79
2017-07-31T02:50:44.429Z,69.83
2017-07-31T02:51:41.775Z,69.87
2017-07-31T02:52:39.049Z,69.89
2017-07-31T02:53:36.418Z,69.90
2017-07-31T02:54:33.680Z,69.94
2017-07-31T02:55:30.978Z,69.97
2017-07-31T02:56:28.284Z,69.98
2017-07-31T02:57:25.676Z,70.00
2017-07-31T02:58:22.951Z,70.04
2017-07-31T02:59:20.294Z,70.08
2017-07-31T03:00:17.538Z,70.08
2017-07-31T03:01:14.814Z,70.09
2017-07-31T03:02:12.112Z,70.11
2017-07-31T03:03:09.445Z,70.12
2017-07-31T03:04:06.706Z,70.11
2017-07-31T03:05:03.989Z,70.11
2017-07-31T03:06:01.337Z,70.12
2017-07-31T03:06:58.661Z,70.14
2017-07-31T03:07:55.924Z,70.16
2017-07-31T03:08:53.232Z,70.19
2017-07-31T03:09:50.561Z,70.22
2017-07-31T03:10:47.903Z,70.28
2017-07-31T03:11:45.175Z,70.32
2017-07-31T03:12:42.472Z,70.33
2017-07-31T03:13:39.797Z,70.39
2017-07-31T03:14:37.096Z,70.42
2017-07-31T03:15:34.417Z,70.45
2017-07-31T03:16:31.749Z,70.46
2017-07-31T03:17:29.020Z,70.48
2017-07-31T03:18:26.342Z,70.52
2017-07-31T03:19:23.663Z,70.55
2017-07-31T03:20:20.989Z,70.55
2017-07-31T03:21:18.287Z,70.56
2017-07-31T03:22:15.617Z,70.56
2017-07-31T03:23:12.944Z,70.61
2017-07-31T03:24:10.317Z,70.64
2017-07-31T03:25:07.634Z,70.67
2017-07-31T03:26:04.971Z,70.67
2017-07-31T03:27:02.273Z,70.68
2017-07-31T03:27:59.564Z,70.71
2017-07-31T03:28:56.887Z,70.72
2017-07-31T03:29:54.236Z,70.75
2017-07-31T03:30:51.552Z,70.76
2017-07-31T03:31:48.877Z,70.79
2017-07-31T03:32:46.205Z,70.80
2017-07-31T03:33:43.568Z,70.81
2017-07-31T03:34:40.861Z,70.83
2017-07-31T03:35:38.191Z,70.83
2017-07-31T03:36:35.517Z,70.82
2017-07-31T03:37:32.895Z,70.84
2017-07-31T03:38:30.171Z,70.81
2017-07-31T03:39:27.531Z,70.83
2017-07-31T03:40:24.869Z,70.84
2017-07-31T03:41:22.216Z,70.86
2017-07-31T03:42:19.501Z,70.87
2017-07-31T03:43:16.894Z,70.90
2017-07-31T03:44:14.150Z,70.90
2017-07-31T03:45:11.489Z,70.91
2017-07-31T03:46:08.811Z,70.90
2017-07-31T03:48:15.172Z,70.93
2017-07-31T03:49:12.451Z,70.93
2017-07-31T03:50:09.843Z,70.94
2017-07-31T03:51:07.229Z,70.96
2017-07-31T03:52:04.535Z,70.99
2017-07-31T03:53:01.881Z,71.00
2017-07-31T03:53:59.200Z,70.99
2017-07-31T03:54:56.493Z,71.01
2017-07-31T03:55:53.809Z,71.00
2017-07-31T03:56:51.112Z,71.04
2017-07-31T03:57:48.420Z,71.04
2017-07-31T03:58:45.761Z,71.03
2017-07-31T03:59:43.036Z,71.04
2017-07-31T04:00:40.357Z,71.03
2017-07-31T04:01:37.630Z,71.04
2017-07-31T04:02:34.930Z,71.05
2017-07-31T04:03:32.189Z,71.06
2017-07-31T04:04:29.521Z,71.05
2017-07-31T04:05:26.796Z,71.06
2017-07-31T04:06:24.144Z,71.03
2017-07-31T04:07:21.428Z,71.05
2017-07-31T04:08:18.730Z,71.03
2017-07-31T04:09:16.376Z,71.03
2017-07-31T04:10:14.288Z,71.03
2017-07-31T04:11:11.655Z,71.03
2017-07-31T04:12:08.990Z,71.04
2017-07-31T04:13:06.478Z,71.05
2017-07-31T04:14:04.968Z,71.02
2017-07-31T04:15:02.262Z,71.02
2017-07-31T04:15:59.604Z,71.03
2017-07-31T04:16:56.841Z,71.01
2017-07-31T04:17:54.198Z,71.00
2017-07-31T04:18:51.491Z,71.04
2017-07-31T04:19:48.792Z,71.04
2017-07-31T04:20:46.110Z,71.04
2017-07-31T04:21:43.460Z,71.06
2017-07-31T04:22:40.735Z,71.06
2017-07-31T04:23:38.068Z,71.04
2017-07-31T04:24:35.347Z,71.04
2017-07-31T04:25:32.633Z,71.06
2017-07-31T04:26:29.978Z,71.06
2017-07-31T04:27:27.318Z,71.07
2017-07-31T04:28:24.693Z,71.07
2017-07-31T04:29:21.972Z,71.09
2017-07-31T04:30:19.237Z,71.08
2017-07-31T04:31:16.634Z,71.09
2017-07-31T04:32:13.996Z,71.11
2017-07-31T04:33:11.334Z,71.12
2017-07-31T04:34:08.659Z,71.12
2017-07-31T04:35:05.941Z,71.14
2017-07-31T04:36:03.238Z,71.14
2017-07-31T04:37:00.611Z,71.15
2017-07-31T04:37:57.869Z,71.15
2017-07-31T04:38:55.176Z,71.14
2017-07-31T04:39:52.439Z,71.16
2017-07-31T04:40:49.923Z,71.14
2017-07-31T04:41:47.256Z,71.15
2017-07-31T04:42:44.598Z,71.15
2017-07-31T04:43:41.923Z,71.12
2017-07-31T04:44:39.261Z,71.13
2017-07-31T04:45:36.561Z,71.09
2017-07-31T04:46:33.853Z,71.11
2017-07-31T04:47:31.136Z,71.10
2017-07-31T04:48:28.456Z,71.11
2017-07-31T04:49:25.708Z,71.10
2017-07-31T04:50:23.018Z,71.10
2017-07-31T04:51:20.320Z,71.11
2017-07-31T04:52:17.656Z,71.12
2017-07-31T04:53:15.050Z,71.13
2017-07-31T04:54:12.352Z,71.13
2017-07-31T04:55:09.673Z,71.14
2017-07-31T04:56:06.962Z,71.16
2017-07-31T04:57:04.276Z,71.18
2017-07-31T04:58:01.588Z,71.19
2017-07-31T04:58:59.075Z,71.20
2017-07-31T04:59:56.395Z,71.20
2017-07-31T05:00:53.654Z,71.22
2017-07-31T05:01:50.994Z,71.22
2017-07-31T05:02:48.292Z,71.25
2017-07-31T05:03:45.612Z,71.28
2017-07-31T05:04:42.924Z,71.33
2017-07-31T05:05:40.249Z,71.34
2017-07-31T05:06:37.544Z,71.37
2017-07-31T05:07:34.888Z,71.39
2017-07-31T05:08:32.177Z,71.42
2017-07-31T05:09:29.661Z,71.48
2017-07-31T05:10:26.985Z,71.50
2017-07-31T05:11:24.435Z,71.52
2017-07-31T05:12:21.813Z,71.54
2017-07-31T05:13:19.150Z,71.62
2017-07-31T05:14:16.445Z,71.64
2017-07-31T05:15:13.763Z,71.67
2017-07-31T05:16:11.057Z,71.68
2017-07-31T05:17:08.399Z,71.72
2017-07-31T05:18:06.307Z,71.74
2017-07-31T05:19:03.872Z,71.78
2017-07-31T05:20:01.156Z,71.79
2017-07-31T05:20:58.441Z,71.82
2017-07-31T05:21:55.759Z,71.85
2017-07-31T05:22:53.110Z,71.88
2017-07-31T05:23:50.579Z,71.91
2017-07-31T05:24:47.886Z,71.95
2017-07-31T05:25:45.197Z,71.96
2017-07-31T05:26:42.483Z,72.01
2017-07-31T05:27:39.780Z,72.04
2017-07-31T05:28:37.061Z,72.04
2017-07-31T05:29:34.472Z,72.05
2017-07-31T05:30:31.774Z,72.06
2017-07-31T05:31:29.085Z,72.09
2017-07-31T05:32:26.671Z,72.09
2017-07-31T05:33:24.043Z,72.15
2017-07-31T05:34:21.369Z,72.19
2017-07-31T05:35:18.676Z,72.22
2017-07-31T05:36:15.965Z,72.24
2017-07-31T05:37:13.301Z,72.27
2017-07-31T05:38:10.622Z,72.29
2017-07-31T05:39:07.965Z,72.32
2017-07-31T05:40:05.317Z,72.35
2017-07-31T05:41:02.672Z,72.36
2017-07-31T05:41:59.972Z,72.38
2017-07-31T05:42:57.289Z,72.38
2017-07-31T05:43:54.603Z,72.40
2017-07-31T05:44:51.898Z,72.42
2017-07-31T05:45:49.227Z,72.44
2017-07-31T05:46:46.685Z,72.47
2017-07-31T05:47:44.067Z,72.50
2017-07-31T05:48:41.416Z,72.54
2017-07-31T05:49:38.747Z,72.61
2017-07-31T05:50:36.063Z,72.65
2017-07-31T05:51:33.458Z,72.66
2017-07-31T05:52:30.739Z,72.68
2017-07-31T05:53:28.152Z,72.75
2017-07-31T05:54:25.405Z,72.78
2017-07-31T05:55:22.694Z,72.81
2017-07-31T05:56:20.004Z,72.83
2017-07-31T05:57:17.280Z,72.90
2017-07-31T05:58:14.516Z,72.90
2017-07-31T05:59:11.820Z,72.91
2017-07-31T06:00:09.067Z,72.88
2017-07-31T06:01:06.404Z,72.91
2017-07-31T06:02:03.674Z,72.92
2017-07-31T06:03:00.964Z,72.95
2017-07-31T06:03:58.208Z,73.00
2017-07-31T06:04:55.510Z,73.05
2017-07-31T06:05:52.797Z,73.08
2017-07-31T06:06:50.112Z,73.16
2017-07-31T06:07:47.517Z,73.18
2017-07-31T06:08:44.907Z,73.25
2017-07-31T06:09:42.168Z,73.32
2017-07-31T06:10:39.484Z,73.35
2017-07-31T06:11:37.043Z,73.43
2017-07-31T06:12:34.357Z,73.45
2017-07-31T06:13:31.690Z,73.48
2017-07-31T06:14:29.016Z,73.53
2017-07-31T06:15:26.321Z,73.59
2017-07-31T06:16:23.588Z,73.65
2017-07-31T06:17:20.872Z,73.67
2017-07-31T06:18:18.162Z,73.70
2017-07-31T06:19:15.462Z,73.74
2017-07-31T06:20:12.779Z,73.78
2017-07-31T06:21:10.058Z,73.79
2017-07-31T06:22:07.369Z,73.82
2017-07-31T06:23:04.645Z,73.86
2017-07-31T06:24:02.092Z,73.89
2017-07-31T06:24:59.403Z,73.91
2017-07-31T06:25:56.749Z,73.95
2017-07-31T06:26:54.120Z,73.98
2017-07-31T06:27:51.479Z,74.02
2017-07-31T06:28:48.737Z,74.07
2017-07-31T06:29:46.108Z,74.10
2017-07-31T06:30:43.365Z,74.13
2017-07-31T06:31:40.659Z,74.16
2017-07-31T06:32:37.946Z,74.19
2017-07-31T06:33:35.253Z,74.23
2017-07-31T06:34:32.540Z,74.27
2017-07-31T06:35:29.877Z,74.31
2017-07-31T06:36:27.190Z,74.36
2017-07-31T06:37:24.498Z,74.38
2017-07-31T06:38:21.806Z,74.44
2017-07-31T06:39:19.117Z,74.46
2017-07-31T06:40:16.432Z,74.52
2017-07-31T06:41:13.793Z,74.53
2017-07-31T06:42:11.068Z,74.57
2017-07-31T06:43:08.381Z,74.64
2017-07-31T06:44:05.720Z,74.68
2017-07-31T06:45:03.043Z,74.75
2017-07-31T06:46:00.293Z,74.77
2017-07-31T06:46:57.660Z,74.80
2017-07-31T06:47:54.868Z,74.84
2017-07-31T06:48:52.120Z,74.88
2017-07-31T06:49:49.388Z,74.92
2017-07-31T06:50:46.675Z,74.96
2017-07-31T06:51:43.935Z,74.98
2017-07-31T06:52:41.207Z,75.00
2017-07-31T06:53:38.433Z,75.00
2017-07-31T06:54:35.730Z,75.05
2017-07-31T06:55:33.034Z,75.08
2017-07-31T06:56:30.372Z,75.08
2017-07-31T06:57:27.620Z,75.10
2017-07-31T06:58:24.896Z,75.15
2017-07-31T06:59:22.165Z,75.17
2017-07-31T07:00:19.489Z,75.22
2017-07-31T07:01:16.773Z,75.28
2017-07-31T07:02:14.046Z,75.32
2017-07-31T07:03:11.293Z,75.33
2017-07-31T07:04:08.565Z,75.32
2017-07-31T07:05:05.807Z,75.36
2017-07-31T07:06:03.112Z,75.36
2017-07-31T07:07:00.414Z,75.37
2017-07-31T07:07:59.760Z,75.40
2017-07-31T07:08:56.999Z,75.43
2017-07-31T07:09:54.341Z,75.43
2017-07-31T07:10:51.632Z,75.47
2017-07-31T07:11:48.968Z,75.50
2017-07-31T07:12:46.228Z,75.52
2017-07-31T07:13:43.517Z,75.51
2017-07-31T07:14:40.793Z,75.51
2017-07-31T07:15:38.100Z,75.52
2017-07-31T07:16:35.347Z,75.54
2017-07-31T07:17:32.606Z,75.57
2017-07-31T07:18:29.865Z,75.59
2017-07-31T07:19:27.159Z,75.60
2017-07-31T07:20:24.414Z,75.59
2017-07-31T07:21:21.751Z,75.59
2017-07-31T07:22:19.026Z,75.60
2017-07-31T07:23:16.318Z,75.59
2017-07-31T07:24:13.595Z,75.58
2017-07-31T07:25:10.880Z,75.61
2017-07-31T07:26:08.154Z,75.64
2017-07-31T07:27:05.456Z,75.65
2017-07-31T07:28:02.706Z,75.69
2017-07-31T07:29:00.045Z,75.71
2017-07-31T07:29:57.360Z,75.74
2017-07-31T07:30:54.740Z,75.77
2017-07-31T07:31:52.034Z,75.81
2017-07-31T07:32:49.332Z,75.85
2017-07-31T07:33:46.601Z,75.89
2017-07-31T07:34:43.867Z,75.89
2017-07-31T07:35:41.122Z,75.88
2017-07-31T07:36:38.498Z,75.86
2017-07-31T07:37:35.748Z,75.87
2017-07-31T07:38:33.013Z,75.86
2017-07-31T07:39:30.316Z,75.88
2017-07-31T07:40:27.586Z,75.86
2017-07-31T07:41:24.862Z,75.83
2017-07-31T07:42:22.165Z,75.87
2017-07-31T07:43:19.411Z,75.89
2017-07-31T07:44:16.707Z,75.84
2017-07-31T07:45:14.047Z,75.82
2017-07-31T07:46:11.332Z,75.78
2017-07-31T07:47:13.821Z,75.81
2017-07-31T07:48:11.084Z,75.78
2017-07-31T07:49:08.325Z,75.74
2017-07-31T07:50:05.647Z,75.73
2017-07-31T07:51:02.910Z,75.67
2017-07-31T07:52:00.203Z,75.61
2017-07-31T07:52:57.465Z,75.56
2017-07-31T07:53:54.753Z,75.52
2017-07-31T07:54:52.009Z,75.44
2017-07-31T07:55:49.273Z,75.40
2017-07-31T07:56:46.566Z,75.38
2017-07-31T07:57:43.844Z,75.36
2017-07-31T07:58:41.093Z,75.33
2017-07-31T07:59:38.369Z,75.29
2017-07-31T08:00:35.645Z,75.26
2017-07-31T08:01:32.942Z,75.22
2017-07-31T08:02:30.196Z,75.16
2017-07-31T08:03:27.491Z,75.17
2017-07-31T08:04:24.742Z,75.13
2017-07-31T08:05:22.045Z,75.14
2017-07-31T08:06:19.289Z,75.10
2017-07-31T08:07:16.660Z,75.08
2017-07-31T08:08:13.896Z,75.04
2017-07-31T08:09:11.180Z,74.98
2017-07-31T08:10:08.398Z,74.92
2017-07-31T08:11:05.679Z,74.85
2017-07-31T08:12:02.948Z,74.82
2017-07-31T08:13:00.224Z,74.78
2017-07-31T08:13:57.486Z,74.72
2017-07-31T08:14:54.757Z,74.71
2017-07-31T08:15:52.025Z,74.62
2017-07-31T08:16:49.320Z,74.51
2017-07-31T08:17:46.647Z,74.43
2017-07-31T08:18:43.932Z,74.35
2017-07-31T08:19:41.190Z,74.29
2017-07-31T08:20:38.459Z,74.19
2017-07-31T08:21:35.779Z,74.13
2017-07-31T08:22:33.213Z,74.11
2017-07-31T08:23:30.488Z,74.08
2017-07-31T08:24:27.902Z,74.05
2017-07-31T08:25:25.210Z,74.00
2017-07-31T08:26:22.511Z,73.93
2017-07-31T08:27:19.857Z,73.85
2017-07-31T08:28:17.181Z,73.73
2017-07-31T08:29:14.520Z,73.62
2017-07-31T08:30:11.846Z,73.58
2017-07-31T08:31:09.122Z,73.57
2017-07-31T08:32:06.408Z,73.52
2017-07-31T08:33:03.695Z,73.50
2017-07-31T08:34:01.000Z,73.48
2017-07-31T08:34:58.267Z,73.49
2017-07-31T08:35:55.643Z,73.46
2017-07-31T08:36:52.913Z,73.37
2017-07-31T08:37:50.305Z,73.26
2017-07-31T08:38:47.576Z,73.13
2017-07-31T08:39:44.849Z,73.07
2017-07-31T08:40:42.101Z,72.99
2017-07-31T08:41:39.393Z,72.89
2017-07-31T08:42:36.711Z,72.79
2017-07-31T08:43:33.991Z,72.69
2017-07-31T08:44:31.293Z,72.67
2017-07-31T08:45:28.617Z,72.54
2017-07-31T08:46:25.877Z,72.48
2017-07-31T08:47:23.172Z,72.36
2017-07-31T08:48:20.455Z,72.26
2017-07-31T08:49:17.736Z,72.17
2017-07-31T08:50:14.995Z,72.07
2017-07-31T08:51:12.272Z,72.01
2017-07-31T08:52:09.533Z,71.95
2017-07-31T08:53:06.841Z,71.90
2017-07-31T08:54:04.140Z,71.81
2017-07-31T08:55:01.426Z,71.80
2017-07-31T08:55:58.731Z,71.69
2017-07-31T08:56:56.029Z,71.51
2017-07-31T08:57:53.329Z,71.45
2017-07-31T08:58:50.636Z,71.33
2017-07-31T08:59:47.884Z,71.24
2017-07-31T09:00:45.196Z,71.13
2017-07-31T09:01:42.459Z,71.05
2017-07-31T09:02:39.744Z,71.04
2017-07-31T09:03:37.013Z,70.99
2017-07-31T09:04:34.284Z,70.89
2017-07-31T09:05:31.545Z,70.87
2017-07-31T09:06:28.824Z,70.85
2017-07-31T09:07:26.084Z,70.70
2017-07-31T09:08:23.409Z,70.62
2017-07-31T09:09:20.682Z,70.58
2017-07-31T09:10:17.973Z,70.48
2017-07-31T09:11:15.233Z,70.40
2017-07-31T09:12:12.521Z,70.29
2017-07-31T09:13:09.744Z,70.22
2017-07-31T09:14:07.046Z,70.13
2017-07-31T09:15:04.362Z,70.01
2017-07-31T09:16:01.651Z,69.85
2017-07-31T09:16:58.951Z,69.80
2017-07-31T09:17:56.257Z,69.69
2017-07-31T09:18:53.533Z,69.57
2017-07-31T09:19:50.840Z,69.54
2017-07-31T09:20:48.129Z,69.55
2017-07-31T09:21:45.570Z,69.46
2017-07-31T09:22:42.825Z,69.38
2017-07-31T09:23:40.125Z,69.30
2017-07-31T09:24:37.410Z,69.25
2017-07-31T09:25:34.669Z,69.14
2017-07-31T09:26:31.911Z,69.11
2017-07-31T09:27:29.197Z,69.02
2017-07-31T09:28:26.464Z,68.97
2017-07-31T09:29:23.745Z,68.92
2017-07-31T09:30:21.008Z,68.91
2017-07-31T09:31:18.304Z,68.82
2017-07-31T09:32:15.601Z,68.77
2017-07-31T09:33:12.905Z,68.74
2017-07-31T09:34:10.196Z,68.69
2017-07-31T09:35:07.472Z,68.63
2017-07-31T09:36:04.749Z,68.56
2017-07-31T09:37:02.080Z,68.53
2017-07-31T09:37:59.356Z,68.44
2017-07-31T09:38:56.677Z,68.38
2017-07-31T09:39:53.956Z,68.37
2017-07-31T09:40:51.263Z,68.31
2017-07-31T09:41:48.605Z,68.29
2017-07-31T09:42:45.852Z,68.23
2017-07-31T09:43:43.105Z,68.22
2017-07-31T09:44:40.503Z,68.16
2017-07-31T09:45:37.769Z,68.15
2017-07-31T09:46:35.173Z,68.15
2017-07-31T09:47:32.483Z,68.09
2017-07-31T09:48:29.809Z,68.02
2017-07-31T09:49:27.084Z,68.03
2017-07-31T09:50:24.369Z,68.04
2017-07-31T09:51:21.615Z,68.01
2017-07-31T09:52:18.909Z,67.99
2017-07-31T09:53:16.179Z,68.00
2017-07-31T09:54:13.439Z,67.93
2017-07-31T09:55:10.737Z,67.91
2017-07-31T09:56:08.011Z,67.86
2017-07-31T09:57:05.257Z,67.84
2017-07-31T09:58:02.532Z,67.85
2017-07-31T09:58:59.772Z,67.79
2017-07-31T09:59:57.077Z,67.73
2017-07-31T10:00:54.339Z,67.68
2017-07-31T10:01:51.634Z,67.62
2017-07-31T10:02:48.875Z,67.58
2017-07-31T10:03:46.133Z,67.56
2017-07-31T10:04:43.437Z,67.49
2017-07-31T10:05:40.723Z,67.45
2017-07-31T10:06:37.985Z,67.43
2017-07-31T10:07:35.264Z,67.39
2017-07-31T10:08:32.506Z,67.28
2017-07-31T10:09:29.809Z,67.26
2017-07-31T10:10:27.069Z,67.20
2017-07-31T10:11:24.825Z,67.09
2017-07-31T10:12:22.066Z,67.09
2017-07-31T10:13:19.377Z,67.05
2017-07-31T10:14:16.640Z,66.98
2017-07-31T10:15:13.937Z,67.00
2017-07-31T10:16:11.186Z,66.97
2017-07-31T10:17:08.464Z,66.86
2017-07-31T10:18:05.752Z,66.78
2017-07-31T10:19:03.040Z,66.72
2017-07-31T10:20:00.289Z,66.60
2017-07-31T10:20:57.596Z,66.53
2017-07-31T10:21:54.831Z,66.39
2017-07-31T10:22:52.119Z,66.33
2017-07-31T10:23:49.394Z,66.34
2017-07-31T10:24:46.701Z,66.31
2017-07-31T10:25:43.981Z,66.20
2017-07-31T10:26:41.264Z,66.17
2017-07-31T10:27:38.528Z,66.13
2017-07-31T10:28:35.884Z,66.03
2017-07-31T10:29:33.136Z,65.88
2017-07-31T10:30:30.513Z,65.79
2017-07-31T10:31:27.772Z,65.75
2017-07-31T10:32:25.069Z,65.70
2017-07-31T10:33:22.350Z,65.58
2017-07-31T10:34:19.623Z,65.55
2017-07-31T10:35:16.912Z,65.56
2017-07-31T10:36:14.292Z,65.45
2017-07-31T10:37:11.558Z,65.39
2017-07-31T10:38:08.820Z,65.29
2017-07-31T10:39:06.076Z,65.15
2017-07-31T10:40:03.355Z,65.05
2017-07-31T10:41:00.616Z,64.93
2017-07-31T10:41:57.889Z,64.82
2017-07-31T10:42:55.172Z,64.80
2017-07-31T10:43:52.443Z,64.80
2017-07-31T10:44:49.689Z,64.72
2017-07-31T10:45:47.041Z,64.64
2017-07-31T10:46:44.336Z,64.54
2017-07-31T10:47:41.606Z,64.53
2017-07-31T10:48:38.900Z,64.45
2017-07-31T10:49:36.156Z,64.33
2017-07-31T10:50:33.380Z,64.29
2017-07-31T10:51:30.658Z,64.26
2017-07-31T10:52:27.905Z,64.22
2017-07-31T10:53:25.174Z,64.13
2017-07-31T10:54:22.436Z,63.99
2017-07-31T10:55:20.374Z,63.96
2017-07-31T10:56:17.643Z,63.94
2017-07-31T10:57:14.982Z,63.92
2017-07-31T10:58:12.204Z,63.83
2017-07-31T10:59:09.452Z,63.76
2017-07-31T11:00:06.737Z,63.66
2017-07-31T11:01:04.027Z,63.65
2017-07-31T11:02:01.328Z,63.48
2017-07-31T11:02:58.596Z,63.37
2017-07-31T11:03:55.849Z,63.31
2017-07-31T11:04:53.130Z,63.31
2017-07-31T11:05:50.385Z,63.31
2017-07-31T11:06:47.699Z,63.25
2017-07-31T11:07:44.933Z,63.24
2017-07-31T11:08:42.216Z,63.24
2017-07-31T11:09:39.462Z,63.17
2017-07-31T11:10:36.737Z,63.13
2017-07-31T11:11:34.020Z,63.06
2017-07-31T11:12:31.384Z,62.95
2017-07-31T11:13:28.626Z,62.95
2017-07-31T11:14:25.904Z,62.96
2017-07-31T11:15:23.160Z,62.95
2017-07-31T11:16:20.451Z,62.86
2017-07-31T11:17:17.704Z,62.83
2017-07-31T11:18:15.072Z,62.72
2017-07-31T11:19:12.324Z,62.71
2017-07-31T11:20:09.585Z,62.71
2017-07-31T11:21:06.831Z,62.63
2017-07-31T11:22:04.134Z,62.61
2017-07-31T11:23:01.385Z,62.57
2017-07-31T11:23:58.646Z,62.48
2017-07-31T11:24:55.893Z,62.43
2017-07-31T11:25:53.161Z,62.33
2017-07-31T11:26:50.445Z,62.23
2017-07-31T11:27:47.723Z,62.13
2017-07-31T11:28:44.970Z,62.12
2017-07-31T11:29:42.249Z,62.10
2017-07-31T11:30:39.492Z,62.08
2017-07-31T11:31:36.768Z,62.00
2017-07-31T11:32:34.032Z,61.98
2017-07-31T11:33:31.296Z,61.90
2017-07-31T11:34:28.528Z,61.83
2017-07-31T11:35:25.800Z,61.85
2017-07-31T11:36:23.036Z,61.82
2017-07-31T11:37:20.316Z,61.81
2017-07-31T11:38:17.565Z,61.77
2017-07-31T11:39:14.844Z,61.71
2017-07-31T11:40:12.149Z,61.70
2017-07-31T11:41:09.416Z,61.68
2017-07-31T11:42:06.661Z,61.68
2017-07-31T11:43:03.944Z,61.67
2017-07-31T11:44:01.189Z,61.64
2017-07-31T11:44:58.493Z,61.70
2017-07-31T11:45:55.792Z,61.60
2017-07-31T11:46:53.082Z,61.53
2017-07-31T11:47:50.354Z,61.47
2017-07-31T11:48:47.617Z,61.47
2017-07-31T11:49:44.873Z,61.43
2017-07-31T11:50:42.156Z,61.34
2017-07-31T11:51:39.405Z,61.41
2017-07-31T11:52:36.701Z,61.41
2017-07-31T11:53:33.988Z,61.34
2017-07-31T11:54:31.260Z,61.31
2017-07-31T11:55:28.512Z,61.26
2017-07-31T11:56:25.793Z,61.22
2017-07-31T11:57:23.040Z,61.22
2017-07-31T11:58:20.346Z,61.15
2017-07-31T11:59:17.608Z,61.04
2017-07-31T12:00:14.884Z,61.04
2017-07-31T12:01:12.151Z,60.97
2017-07-31T12:02:09.421Z,60.86
2017-07-31T12:03:06.715Z,60.80
2017-07-31T12:04:03.984Z,60.73
2017-07-31T12:05:01.225Z,60.69
2017-07-31T12:05:58.704Z,60.63
2017-07-31T12:06:55.975Z,60.59
2017-07-31T12:07:53.398Z,60.50
2017-07-31T12:08:50.650Z,60.37
2017-07-31T12:09:47.929Z,60.30
2017-07-31T12:10:45.169Z,60.30
2017-07-31T12:11:42.438Z,60.29
2017-07-31T12:12:39.680Z,60.31
2017-07-31T12:13:36.992Z,60.25
2017-07-31T12:14:34.252Z,60.21
2017-07-31T12:15:31.517Z,60.20
2017-07-31T12:16:28.758Z,60.19
2017-07-31T12:17:26.050Z,60.15
2017-07-31T12:18:23.353Z,60.09
2017-07-31T12:19:20.625Z,60.05